Time;durP1;ratioP1;P1;durP2;ratioP2;P2;SDS_P1;SDS_P2;PMS_P1;PMS_P2;Temp;Humidity;BMP_temperature;BMP_pressure;BME280_temperature;BME280_humidity;BME280_pressure;Samples;Min_cycle;Max_cycle;Signal;HPM_P1;HPM_P2
2021/12/07 00:01:59;;;;;;;22.90;16.83;;;;;;;0.75;100.00;100890.81;5045500;22;20242;-54
2021/12/07 00:04:26;;;;;;;27.77;16.00;;;;;;;1.37;100.00;100891.53;5062110;28;20768;-53
2021/12/07 00:06:53;;;;;;;23.93;15.80;;;;;;;1.60;100.00;100890.69;5062523;28;20245;-53
2021/12/07 00:09:21;;;;;;;30.00;15.90;;;;;;;1.95;100.00;100885.06;5060279;28;20737;-53
2021/12/07 00:11:48;;;;;;;27.03;17.47;;;;;;;1.80;99.15;100893.16;5061529;28;20261;-54
2021/12/07 00:14:23;;;;;;;23.23;16.97;;;;;;;1.30;99.50;100885.25;5062327;28;20325;-55
2021/12/07 00:16:50;;;;;;;29.70;17.90;;;;;;;1.15;100.00;100882.06;5060777;28;20594;-53
2021/12/07 00:19:17;;;;;;;26.90;18.83;;;;;;;0.65;100.00;100871.47;5060139;28;20219;-53
2021/12/07 00:21:44;;;;;;;24.33;17.23;;;;;;;0.84;100.00;100873.09;5061448;28;20238;-54
2021/12/07 00:24:12;;;;;;;21.67;14.77;;;;;;;1.70;100.00;100854.81;5058026;28;20711;-53
2021/12/07 00:26:39;;;;;;;22.50;15.80;;;;;;;2.21;99.02;100858.41;5060303;28;20309;-53
2021/12/07 00:29:07;;;;;;;23.63;15.90;;;;;;;1.95;100.00;100851.41;5060564;28;20307;-54
2021/12/07 00:31:40;;;;;;;23.13;15.07;;;;;;;1.51;99.79;100845.47;5061007;28;20314;-54
2021/12/07 00:34:14;;;;;;;18.57;14.40;;;;;;;1.94;99.56;100845.34;5062391;28;20234;-53
2021/12/07 00:36:44;;;;;;;22.23;14.87;;;;;;;1.86;99.07;100837.31;5061480;28;20261;-54
2021/12/07 00:39:11;;;;;;;24.03;15.83;;;;;;;1.83;96.54;100837.22;5061497;28;20235;-54
2021/12/07 00:41:37;;;;;;;24.17;15.83;;;;;;;1.40;96.31;100843.41;5062662;28;20702;-53
2021/12/07 00:44:05;;;;;;;20.27;15.37;;;;;;;1.18;97.56;100840.81;5062904;28;20738;-53
2021/12/07 00:46:35;;;;;;;22.90;17.13;;;;;;;1.57;99.92;100837.94;5060154;28;20471;-54
2021/12/07 00:49:03;;;;;;;23.00;14.60;;;;;;;1.70;98.58;100836.72;5060062;28;20289;-53
2021/12/07 00:51:30;;;;;;;24.23;15.03;;;;;;;1.56;96.26;100837.09;5051189;28;20751;-54
2021/12/07 00:53:56;;;;;;;20.90;15.70;;;;;;;1.96;95.20;100838.50;5035121;28;20306;-54
2021/12/07 00:56:22;;;;;;;18.27;13.37;;;;;;;2.11;98.04;100833.00;5030872;28;20262;-53
2021/12/07 00:58:51;;;;;;;20.57;14.87;;;;;;;2.19;96.48;100826.38;5035085;28;20256;-53
2021/12/07 01:01:19;;;;;;;21.00;13.90;;;;;;;1.83;94.81;100826.84;5037479;28;20775;-56
2021/12/07 01:03:47;;;;;;;20.77;13.93;;;;;;;2.20;94.49;100822.06;5036796;28;20778;-54
2021/12/07 01:06:20;;;;;;;19.60;13.33;;;;;;;1.98;94.36;100818.75;5060912;28;20309;-55
2021/12/07 01:25:15;;;;;;;19.57;13.70;;;;;;;1.35;95.75;100819.06;5058607;28;20710;-54
2021/12/07 01:27:44;;;;;;;20.10;13.33;;;;;;;1.61;95.78;100807.06;5063562;28;20699;-54
2021/12/07 01:30:17;;;;;;;20.17;14.13;;;;;;;1.75;95.92;100811.88;5064124;28;21589;-53
2021/12/07 01:33:01;;;;;;;22.73;13.83;;;;;;;1.81;96.05;100804.31;5073853;28;20246;-54
2021/12/07 01:35:47;;;;;;;18.67;14.03;;;;;;;1.12;96.95;100801.78;5080499;28;20237;-54
2021/12/07 01:38:29;;;;;;;22.47;13.20;;;;;;;1.18;96.58;100800.31;5079200;28;20218;-54
2021/12/07 01:41:09;;;;;;;19.37;13.87;;;;;;;1.46;96.73;100784.94;5077354;28;20687;-56
2021/12/07 01:43:56;;;;;;;17.27;13.10;;;;;;;1.18;95.50;100791.69;5080394;28;20225;-56
2021/12/07 01:52:23;;;;;;;16.23;12.97;;;;;;;1.62;95.56;100754.50;5055938;28;20291;-53
2021/12/07 01:58:06;;;;;;;16.63;11.70;;;;;;;1.31;93.68;100746.47;5060369;28;20245;-52
2021/12/07 02:00:34;;;;;;;16.27;11.97;;;;;;;2.09;93.42;100744.88;5061405;28;20241;-54
2021/12/07 02:03:00;;;;;;;15.10;11.13;;;;;;;1.66;94.64;100745.16;5063779;28;20317;-55
2021/12/07 02:05:27;;;;;;;15.27;11.63;;;;;;;1.50;95.13;100743.72;5062741;28;20646;-55
2021/12/07 02:07:55;;;;;;;17.63;12.57;;;;;;;1.24;94.84;100735.03;5058724;28;20261;-53
2021/12/07 02:10:25;;;;;;;17.47;11.67;;;;;;;1.25;94.31;100736.78;5063923;28;20287;-54
2021/12/07 02:12:53;;;;;;;16.40;11.20;;;;;;;1.91;96.01;100736.50;5063816;28;20230;-52
2021/12/07 02:15:21;;;;;;;17.10;12.67;;;;;;;0.97;93.80;100732.28;5059252;28;20246;-53
2021/12/07 02:17:48;;;;;;;16.97;11.23;;;;;;;1.26;97.50;100735.94;5062704;28;20662;-55
2021/12/07 02:20:15;;;;;;;15.73;12.57;;;;;;;1.82;95.19;100724.13;5063780;28;20234;-53
2021/12/07 02:22:43;;;;;;;16.23;11.83;;;;;;;1.64;93.16;100720.91;5060150;28;20272;-54
2021/12/07 02:25:12;;;;;;;14.87;11.90;;;;;;;1.72;94.98;100716.00;5063541;28;20276;-54
2021/12/07 02:27:38;;;;;;;19.33;12.17;;;;;;;1.87;94.21;100720.00;5066839;28;24194;-54
2021/12/07 02:30:07;;;;;;;15.77;11.30;;;;;;;1.37;96.49;100707.88;5065625;28;20227;-55
2021/12/07 02:32:33;;;;;;;19.17;13.17;;;;;;;1.36;92.75;100712.16;5069176;28;20738;-54
2021/12/07 02:35:00;;;;;;;19.03;11.90;;;;;;;1.35;96.63;100718.19;5066137;28;20721;-54
2021/12/07 02:37:29;;;;;;;18.43;12.43;;;;;;;0.95;95.14;100716.72;5062868;28;20655;-55
2021/12/07 02:39:58;;;;;;;16.57;12.27;;;;;;;1.31;94.27;100711.16;5056660;28;20724;-53
2021/12/07 02:42:25;;;;;;;17.90;12.70;;;;;;;1.06;92.83;100709.38;5053298;28;20262;-54
2021/12/07 02:44:51;;;;;;;13.80;12.13;;;;;;;1.38;96.29;100718.28;5064294;28;20244;-53
2021/12/07 02:47:18;;;;;;;16.83;12.73;;;;;;;1.18;94.85;100716.69;5061166;28;20331;-53
2021/12/07 02:49:45;;;;;;;15.70;11.83;;;;;;;1.67;94.68;100711.53;5063801;28;20283;-55
2021/12/07 02:52:12;;;;;;;17.73;12.63;;;;;;;1.19;94.42;100715.84;5058572;28;20265;-53
2021/12/07 02:54:43;;;;;;;20.67;13.77;;;;;;;1.14;93.98;100725.16;5064229;28;20235;-54
2021/12/07 02:57:11;;;;;;;19.63;12.67;;;;;;;0.45;96.70;100723.41;5061782;28;20239;-54
2021/12/07 02:59:41;;;;;;;20.33;14.10;;;;;;;0.59;97.02;100733.41;5067031;28;20591;-54
2021/12/07 03:02:09;;;;;;;18.07;13.17;;;;;;;0.82;97.81;100732.59;5065104;28;20262;-54
2021/12/07 03:04:41;;;;;;;21.47;14.13;;;;;;;0.40;97.61;100739.56;5060943;28;20230;-53
2021/12/07 03:07:16;;;;;;;15.67;12.23;;;;;;;1.12;99.13;100729.38;5055280;28;20247;-53
2021/12/07 03:10:07;;;;;;;21.93;14.03;;;;;;;0.51;98.25;100732.22;5067464;28;20238;-54
2021/12/07 03:26:17;;;;;;;17.07;12.73;;;;;;;0.90;99.94;100733.75;5066248;28;20779;-54
2021/12/07 03:28:46;;;;;;;19.90;14.30;;;;;;;0.34;97.37;100735.00;5065775;28;20244;-52
2021/12/07 03:31:13;;;;;;;17.27;13.27;;;;;;;0.69;100.00;100722.59;5060017;28;20292;-54
2021/12/07 03:33:40;;;;;;;20.67;14.47;;;;;;;0.81;98.69;100724.75;5048894;28;20282;-54
2021/12/07 03:36:08;;;;;;;20.03;12.80;;;;;;;0.98;100.00;100726.28;5062444;28;20330;-55
2021/12/07 03:38:35;;;;;;;17.90;13.40;;;;;;;1.04;96.42;100735.97;5059282;28;20258;-53
2021/12/07 03:41:01;;;;;;;21.67;14.80;;;;;;;0.97;98.46;100729.69;5055354;28;20258;-53
2021/12/07 03:43:27;;;;;;;23.10;14.80;;;;;;;0.61;97.72;100731.78;5065354;28;20235;-54
2021/12/07 03:45:55;;;;;;;20.47;14.10;;;;;;;0.97;99.21;100723.66;5058221;28;20258;-52
2021/12/07 03:48:21;;;;;;;20.50;14.40;;;;;;;1.33;96.51;100722.41;5039867;28;20250;-53
2021/12/07 03:50:48;;;;;;;21.47;13.87;;;;;;;1.47;96.53;100724.59;5064258;28;20258;-54
2021/12/07 03:53:15;;;;;;;20.40;13.43;;;;;;;1.30;96.60;100724.91;5063149;28;20262;-54
2021/12/07 03:55:42;;;;;;;16.97;12.67;;;;;;;1.57;94.75;100721.53;5063368;28;20241;-54
2021/12/07 03:58:08;;;;;;;19.30;15.40;;;;;;;1.01;96.10;100723.81;5060507;28;20262;-53
2021/12/07 04:00:37;;;;;;;26.93;15.00;;;;;;;0.88;98.83;100730.25;5064118;28;20237;-53
2021/12/07 04:03:08;;;;;;;19.03;13.73;;;;;;;0.78;99.35;100735.88;5060215;28;20325;-53
2021/12/07 04:05:36;;;;;;;21.43;14.37;;;;;;;0.71;98.73;100727.03;5066049;28;20779;-53
2021/12/07 04:08:04;;;;;;;21.40;15.23;;;;;;;0.57;100.00;100724.72;5056160;28;20582;-57
2021/12/07 04:10:30;;;;;;;22.53;15.77;;;;;;;1.15;99.29;100724.34;5066817;28;20231;-53
2021/12/07 04:12:56;;;;;;;22.50;15.27;;;;;;;1.27;96.63;100737.72;5064994;28;20254;-54
2021/12/07 04:15:23;;;;;;;21.63;15.63;;;;;;;1.26;96.63;100729.88;5068697;28;20233;-54
2021/12/07 04:17:49;;;;;;;21.80;15.70;;;;;;;1.13;96.30;100733.75;5070319;28;20281;-55
2021/12/07 04:20:18;;;;;;;24.93;16.63;;;;;;;0.68;97.07;100726.03;5057984;28;20227;-53
2021/12/07 04:22:44;;;;;;;21.47;14.60;;;;;;;0.91;97.22;100727.78;5061735;28;20227;-54
2021/12/07 04:25:12;;;;;;;22.33;15.30;;;;;;;0.95;97.17;100721.91;5061877;28;20258;-54
2021/12/07 04:27:39;;;;;;;22.57;15.37;;;;;;;1.19;95.84;100710.69;5061793;28;20251;-54
2021/12/07 04:30:10;;;;;;;23.13;14.13;;;;;;;1.42;96.73;100707.22;5059831;28;20300;-54
2021/12/07 04:32:37;;;;;;;21.40;15.83;;;;;;;1.72;93.95;100716.00;5047013;28;20237;-52
2021/12/07 04:35:04;;;;;;;24.33;16.37;;;;;;;1.26;95.04;100711.78;5061449;28;20229;-55
2021/12/07 04:37:32;;;;;;;20.23;16.03;;;;;;;1.36;94.36;100709.59;5064620;28;20235;-54
2021/12/07 04:39:58;;;;;;;20.13;16.07;;;;;;;1.01;96.52;100718.66;5059834;28;20266;-53
2021/12/07 04:42:26;;;;;;;20.27;16.03;;;;;;;0.48;97.80;100720.94;5064487;28;20269;-55
2021/12/07 04:44:57;;;;;;;19.30;14.07;;;;;;;1.59;94.31;100717.28;5059754;28;20239;-53
2021/12/07 04:47:32;;;;;;;22.20;16.10;;;;;;;1.07;95.36;100718.88;5057368;28;20655;-53
2021/12/07 04:50:25;;;;;;;21.43;14.60;;;;;;;1.34;96.09;100725.91;5046647;28;20222;-54
2021/12/07 04:58:31;;;;;;;22.50;15.73;;;;;;;1.56;96.40;100741.34;5054911;28;20238;-56
2021/12/07 05:00:58;;;;;;;19.93;14.50;;;;;;;1.16;93.56;100736.47;5063226;28;20257;-54
2021/12/07 05:03:26;;;;;;;20.67;16.33;;;;;;;0.89;96.68;100737.19;5064210;28;20267;-51
2021/12/07 05:05:54;;;;;;;19.37;14.53;;;;;;;0.86;96.55;100741.34;5065039;28;20239;-54
2021/12/07 05:08:34;;;;;;;21.37;16.07;;;;;;;0.83;98.11;100733.47;5048515;28;20242;-53
2021/12/07 05:11:24;;;;;;;23.13;16.27;;;;;;;1.04;96.17;100733.41;5065272;28;20607;-54
2021/12/07 05:13:56;;;;;;;22.00;15.03;;;;;;;1.22;96.17;100723.72;5053069;28;20259;-55
2021/12/07 05:16:39;;;;;;;25.17;15.63;;;;;;;1.18;96.51;100719.28;5049922;28;20713;-53
2021/12/07 05:23:52;;;;;;;25.67;15.70;;;;;;;0.99;95.11;100711.69;5043369;28;20238;-54
2021/12/07 05:24:50;;;;;;;24.63;17.13;;;;;;;0.73;96.75;100715.84;5052038;28;20363;-52
2021/12/07 05:38:03;;;;;;;23.77;17.20;;;;;;;0.89;96.28;100726.84;5058238;28;20626;-53
2021/12/07 05:40:34;;;;;;;27.27;17.77;;;;;;;1.15;97.09;100724.34;5053069;28;20258;-55
2021/12/07 05:43:01;;;;;;;22.77;15.87;;;;;;;1.35;94.78;100725.94;5059041;28;20760;-56
2021/12/07 05:45:32;;;;;;;24.07;16.43;;;;;;;1.51;93.59;100734.22;5064388;28;20227;-53
2021/12/07 05:47:58;;;;;;;22.80;17.10;;;;;;;1.55;91.82;100730.97;5055815;28;20253;-55
2021/12/07 05:50:27;;;;;;;24.13;16.30;;;;;;;1.80;93.51;100741.31;5060434;28;20259;-54
2021/12/07 05:52:53;;;;;;;22.63;17.07;;;;;;;1.22;93.49;100741.84;5062265;28;20261;-55
2021/12/07 05:55:20;;;;;;;23.27;16.07;;;;;;;1.08;94.56;100748.19;5059898;28;20254;-54
2021/12/07 05:57:47;;;;;;;22.80;15.80;;;;;;;1.37;92.92;100741.50;5058195;28;20796;-54
2021/12/07 06:00:23;;;;;;;23.13;16.23;;;;;;;1.18;93.90;100745.13;5052819;28;20261;-55
2021/12/07 06:02:49;;;;;;;22.07;16.60;;;;;;;1.42;93.64;100751.19;5083191;22;20277;-53
2021/12/07 06:05:16;;;;;;;24.60;17.37;;;;;;;1.78;93.41;100744.69;5064832;28;20257;-51
2021/12/07 06:07:42;;;;;;;28.23;18.30;;;;;;;1.16;90.57;100750.25;5068360;28;20241;-50
2021/12/07 06:10:09;;;;;;;26.17;17.03;;;;;;;1.49;92.30;100756.59;5068765;28;20715;-55
2021/12/07 06:12:35;;;;;;;24.63;17.03;;;;;;;1.89;91.33;100762.31;5062775;28;20595;-54
2021/12/07 06:15:03;;;;;;;21.67;15.67;;;;;;;1.52;92.42;100764.47;5048676;28;20296;-53
2021/12/07 06:17:30;;;;;;;24.63;18.00;;;;;;;1.45;92.38;100765.09;5041793;28;20236;-52
2021/12/07 06:19:56;;;;;;;25.20;16.17;;;;;;;1.37;92.59;100760.50;5043556;28;20234;-52
2021/12/07 06:22:23;;;;;;;26.63;17.70;;;;;;;1.23;94.19;100758.22;5042232;28;20301;-55
2021/12/07 06:24:49;;;;;;;23.17;14.90;;;;;;;1.44;93.19;100759.03;5041496;28;20233;-55
2021/12/07 06:27:16;;;;;;;26.23;17.63;;;;;;;1.15;91.51;100760.53;5042889;28;20251;-51
2021/12/07 06:29:42;;;;;;;23.37;16.83;;;;;;;1.52;92.59;100757.59;5040549;28;20280;-55
2021/12/07 06:32:10;;;;;;;21.70;16.50;;;;;;;1.17;94.00;100759.78;5042991;28;20264;-52
2021/12/07 06:34:37;;;;;;;24.40;17.53;;;;;;;0.92;92.98;100773.47;5031070;28;20244;-54
2021/12/07 06:37:04;;;;;;;29.60;17.07;;;;;;;0.94;94.17;100771.81;5041445;28;20299;-53
2021/12/07 06:39:31;;;;;;;25.93;18.10;;;;;;;1.37;91.19;100767.38;5040717;28;20324;-53
2021/12/07 06:41:57;;;;;;;23.57;17.97;;;;;;;1.08;93.82;100768.88;5043228;28;20303;-53
2021/12/07 06:44:24;;;;;;;23.90;16.77;;;;;;;1.04;93.54;100767.00;5034367;28;20807;-53
2021/12/07 06:46:50;;;;;;;29.87;19.20;;;;;;;1.01;95.81;100765.19;5040289;28;20275;-52
2021/12/07 06:49:18;;;;;;;23.37;17.80;;;;;;;0.98;94.92;100771.94;5042668;28;20299;-52
2021/12/07 06:51:45;;;;;;;27.27;17.77;;;;;;;0.97;93.17;100767.59;5035024;28;20356;-54
2021/12/07 06:54:12;;;;;;;28.33;17.53;;;;;;;0.99;96.22;100766.84;5040337;28;20577;-51
2021/12/07 06:56:38;;;;;;;24.43;16.40;;;;;;;1.66;93.08;100760.66;5030842;28;20227;-56
2021/12/07 06:59:06;;;;;;;26.33;17.27;;;;;;;1.65;90.37;100764.06;5030792;28;20309;-52
2021/12/07 07:01:32;;;;;;;27.37;17.23;;;;;;;1.41;90.79;100764.09;5030939;28;20239;-53
2021/12/07 07:03:59;;;;;;;30.80;19.73;;;;;;;1.25;91.59;100772.97;5037837;28;20770;-53
2021/12/07 07:06:27;;;;;;;26.57;17.00;;;;;;;1.22;90.37;100785.78;5042224;28;20253;-53
2021/12/07 07:08:54;;;;;;;27.50;19.90;;;;;;;0.55;93.72;100789.22;5033701;28;20239;-50
2021/12/07 07:11:20;;;;;;;27.03;18.00;;;;;;;1.26;94.36;100787.66;5040273;28;20261;-52
2021/12/07 07:13:48;;;;;;;24.50;18.27;;;;;;;1.07;93.19;100803.31;5043865;28;20377;-51
2021/12/07 07:16:15;;;;;;;30.03;19.00;;;;;;;0.95;93.96;100802.03;5041176;28;20392;-51
2021/12/07 07:18:42;;;;;;;27.67;18.83;;;;;;;1.60;93.55;100794.09;5044536;28;20226;-54
2021/12/07 07:21:09;;;;;;;23.57;16.73;;;;;;;1.59;90.40;100789.75;5046978;28;20751;-53
2021/12/07 07:23:38;;;;;;;28.03;19.43;;;;;;;1.05;90.73;100804.94;5046764;28;20251;-52
2021/12/07 07:26:04;;;;;;;32.17;20.30;;;;;;;1.25;93.80;100814.34;5042650;28;20227;-54
2021/12/07 07:28:33;;;;;;;27.53;18.77;;;;;;;0.95;94.10;100803.75;5046266;28;20304;-51
2021/12/07 07:31:00;;;;;;;27.87;19.73;;;;;;;0.75;94.31;100813.28;5041329;28;20315;-52
2021/12/07 07:33:26;;;;;;;22.47;17.40;;;;;;;1.37;94.32;100808.75;5042519;28;20806;-55
2021/12/07 07:35:53;;;;;;;30.07;18.17;;;;;;;1.46;93.08;100808.22;5043628;28;20786;-53
2021/12/07 07:38:20;;;;;;;28.50;19.23;;;;;;;1.64;92.70;100807.19;5045548;28;20251;-51
2021/12/07 07:40:48;;;;;;;29.97;19.37;;;;;;;1.84;92.54;100814.78;5040555;28;20235;-52
2021/12/07 07:43:16;;;;;;;28.60;20.37;;;;;;;1.19;89.74;100821.88;5043303;28;20746;-52
2021/12/07 07:45:43;;;;;;;24.27;18.50;;;;;;;1.30;92.18;100818.00;5035840;28;20242;-52
2021/12/07 07:48:10;;;;;;;28.13;19.87;;;;;;;0.72;93.49;100826.09;5040781;28;20244;-54
2021/12/07 07:50:37;;;;;;;30.50;20.30;;;;;;;1.33;92.69;100823.28;5042533;28;20231;-51
2021/12/07 07:53:03;;;;;;;28.00;18.30;;;;;;;1.22;93.70;100824.56;5044227;28;20238;-54
2021/12/07 07:55:29;;;;;;;30.30;20.80;;;;;;;1.08;91.82;100820.59;5041512;28;20801;-52
2021/12/07 07:57:57;;;;;;;28.37;19.87;;;;;;;0.94;91.93;100831.25;5045403;28;20232;-51
2021/12/07 08:00:24;;;;;;;28.30;19.83;;;;;;;1.53;90.13;100823.16;5040169;28;20238;-51
2021/12/07 08:02:51;;;;;;;27.03;19.37;;;;;;;1.76;90.19;100824.88;5045451;28;20635;-52
2021/12/07 08:05:17;;;;;;;29.37;20.70;;;;;;;1.09;90.42;100828.41;5043524;28;20234;-52
2021/12/07 08:07:47;;;;;;;29.23;20.37;;;;;;;1.13;93.99;100829.41;5045190;28;20293;-52
2021/12/07 08:10:14;;;;;;;30.57;20.80;;;;;;;1.13;96.74;100829.41;5037839;28;20271;-53
2021/12/07 08:12:41;;;;;;;28.83;20.07;;;;;;;0.63;93.64;100829.19;5043147;28;20321;-53
2021/12/07 08:15:09;;;;;;;26.30;18.53;;;;;;;1.08;94.69;100839.56;5043645;28;20255;-54
2021/12/07 08:17:36;;;;;;;28.57;18.63;;;;;;;1.42;93.69;100838.28;5047952;28;20504;-52
2021/12/07 08:20:05;;;;;;;24.60;18.53;;;;;;;0.97;92.27;100838.28;5046295;28;20238;-53
2021/12/07 08:22:31;;;;;;;29.47;18.90;;;;;;;1.13;95.17;100837.19;5054818;28;20231;-52
2021/12/07 08:24:58;;;;;;;27.37;19.97;;;;;;;1.25;90.47;100840.22;5054620;28;20231;-51
2021/12/07 08:27:25;;;;;;;29.83;20.03;;;;;;;1.45;92.87;100838.41;5047202;28;20239;-53
2021/12/07 08:29:51;;;;;;;25.93;18.70;;;;;;;1.46;92.64;100849.63;5047040;28;20254;-53
2021/12/07 08:32:19;;;;;;;26.70;18.20;;;;;;;1.53;91.38;100830.91;5045515;28;20296;-51
2021/12/07 08:34:45;;;;;;;25.57;19.00;;;;;;;1.63;89.74;100825.25;5045616;28;20262;-54
2021/12/07 08:37:12;;;;;;;26.30;18.10;;;;;;;1.64;91.58;100832.19;5042894;28;20602;-48
2021/12/07 08:39:38;;;;;;;27.17;18.37;;;;;;;1.45;88.74;100837.53;5042507;28;20231;-53
2021/12/07 08:42:06;;;;;;;30.33;17.80;;;;;;;1.57;87.48;100828.47;5036238;28;20285;-52
2021/12/07 08:44:33;;;;;;;26.80;18.50;;;;;;;0.79;90.86;100843.59;5037379;28;20235;-51
2021/12/07 08:47:00;;;;;;;27.87;19.13;;;;;;;1.20;93.14;100841.75;5043827;28;20302;-50
2021/12/07 08:49:28;;;;;;;28.60;18.13;;;;;;;1.90;89.65;100839.19;5037726;28;20254;-51
2021/12/07 08:51:54;;;;;;;27.97;18.40;;;;;;;1.04;88.94;100837.69;5032588;28;20269;-51
2021/12/07 08:54:30;;;;;;;23.03;17.73;;;;;;;1.37;92.58;100842.38;5039396;28;20264;-49
2021/12/07 08:59:44;;;;;;;27.87;17.37;;;;;;;1.70;89.08;100835.00;5044070;28;20233;-51
2021/12/07 09:02:13;;;;;;;25.97;17.67;;;;;;;1.29;88.26;100836.91;5034535;28;20281;-51
2021/12/07 09:04:41;;;;;;;23.50;17.33;;;;;;;1.82;88.71;100834.53;5047982;28;20261;-52
2021/12/07 09:07:07;;;;;;;26.70;17.77;;;;;;;1.47;92.22;100841.91;5047151;28;20244;-51
2021/12/07 09:09:36;;;;;;;30.70;20.07;;;;;;;1.35;88.60;100844.91;5052693;28;20243;-52
2021/12/07 09:12:03;;;;;;;28.70;17.90;;;;;;;1.52;90.19;100844.69;5050413;28;20260;-52
2021/12/07 09:14:30;;;;;;;25.93;17.57;;;;;;;1.47;89.16;100846.19;5045750;28;20226;-53
2021/12/07 09:16:57;;;;;;;27.13;18.73;;;;;;;1.41;90.75;100842.56;5055884;28;20554;-51
2021/12/07 09:19:23;;;;;;;26.37;18.20;;;;;;;1.44;91.20;100836.63;5056553;28;20836;-53
2021/12/07 09:21:51;;;;;;;24.13;16.60;;;;;;;1.69;89.21;100835.84;5044874;28;20735;-51
2021/12/07 09:24:18;;;;;;;24.63;16.40;;;;;;;1.72;89.03;100853.16;5046055;28;20287;-54
2021/12/07 09:26:45;;;;;;;24.90;17.40;;;;;;;1.25;90.49;100853.16;5055389;28;20234;-53
2021/12/07 09:29:12;;;;;;;26.17;18.27;;;;;;;1.26;91.48;100852.31;5055083;28;20251;-53
2021/12/07 09:31:39;;;;;;;26.93;18.67;;;;;;;1.64;90.70;100855.47;5054168;28;20281;-52
2021/12/07 09:34:06;;;;;;;21.30;16.73;;;;;;;1.83;88.16;100850.16;5044866;28;20605;-52
2021/12/07 09:36:33;;;;;;;22.30;16.43;;;;;;;1.78;88.82;100859.44;5056579;28;20245;-59
2021/12/07 09:39:01;;;;;;;23.77;17.23;;;;;;;1.65;87.94;100852.03;5056238;28;20261;-52
2021/12/07 09:41:27;;;;;;;26.90;17.70;;;;;;;1.76;88.95;100860.25;5050700;28;20250;-52
2021/12/07 09:43:55;;;;;;;26.93;18.00;;;;;;;1.59;88.87;100857.91;5039904;28;20239;-53
2021/12/07 09:46:21;;;;;;;24.30;16.40;;;;;;;1.86;90.32;100863.22;5033713;28;20731;-52
2021/12/07 09:48:48;;;;;;;23.60;17.23;;;;;;;1.50;89.27;100861.84;5044593;28;20297;-52
2021/12/07 09:51:17;;;;;;;25.93;17.37;;;;;;;1.22;89.78;100854.72;5043798;28;20246;-51
2021/12/07 09:53:43;;;;;;;26.40;17.83;;;;;;;1.53;89.67;100851.59;5036175;28;20256;-53
2021/12/07 09:56:11;;;;;;;26.77;18.47;;;;;;;1.38;91.44;100857.97;5035932;28;20763;-52
2021/12/07 09:58:40;;;;;;;23.30;17.40;;;;;;;2.03;90.32;100855.13;5040618;28;20245;-52
2021/12/07 10:01:09;;;;;;;23.83;16.50;;;;;;;2.30;87.51;100861.28;5039468;28;20230;-53
2021/12/07 10:03:36;;;;;;;22.37;16.67;;;;;;;1.65;90.54;100860.72;5033032;28;20239;-51
2021/12/07 10:06:02;;;;;;;26.47;18.03;;;;;;;1.51;88.80;100868.78;5039307;28;20789;-52
2021/12/07 10:08:29;;;;;;;27.20;17.93;;;;;;;1.61;90.06;100865.69;5036585;28;20239;-54
2021/12/07 10:10:57;;;;;;;23.07;16.33;;;;;;;1.61;88.74;100865.69;5041169;28;20234;-52
2021/12/07 10:13:27;;;;;;;25.83;18.23;;;;;;;1.83;92.43;100864.81;5042284;28;20330;-51
2021/12/07 10:15:56;;;;;;;24.20;17.87;;;;;;;1.88;88.46;100873.59;5031320;28;20296;-54
2021/12/07 10:18:23;;;;;;;26.13;17.30;;;;;;;2.27;86.65;100875.84;5038989;28;20297;-51
2021/12/07 10:20:52;;;;;;;28.37;17.70;;;;;;;2.12;84.96;100860.66;5052773;28;20750;-51
2021/12/07 10:23:28;;;;;;;24.70;17.17;;;;;;;2.39;87.06;100860.75;5053415;28;20234;-51
2021/12/07 10:25:57;;;;;;;28.97;20.07;;;;;;;1.45;87.33;100868.56;5057685;28;20259;-52
2021/12/07 10:28:28;;;;;;;27.47;17.17;;;;;;;2.11;90.01;100858.91;5046905;28;20242;-51
2021/12/07 10:30:55;;;;;;;27.67;19.17;;;;;;;1.67;87.59;100848.69;5046063;28;20241;-52
2021/12/07 10:33:29;;;;;;;29.60;19.10;;;;;;;1.38;88.93;100851.94;5041112;28;20269;-51
2021/12/07 10:36:06;;;;;;;26.20;18.57;;;;;;;1.90;89.40;100854.72;5043106;28;20228;-53
2021/12/07 10:38:33;;;;;;;25.57;18.70;;;;;;;1.63;87.93;100853.72;5038300;28;20238;-55
2021/12/07 10:41:02;;;;;;;23.57;17.77;;;;;;;1.95;89.51;100851.41;5044108;28;20257;-51
2021/12/07 10:43:44;;;;;;;29.33;19.37;;;;;;;1.61;87.32;100845.88;5048311;28;20408;-54
2021/12/07 10:46:42;;;;;;;28.03;19.47;;;;;;;1.86;88.13;100847.69;5056303;28;20234;-52
2021/12/07 10:49:36;;;;;;;30.03;18.80;;;;;;;1.92;88.93;100839.22;5044217;28;20239;-53
2021/12/07 10:52:14;;;;;;;28.17;18.30;;;;;;;1.66;87.75;100833.13;5057928;28;20236;-52
2021/12/07 10:54:44;;;;;;;26.63;17.97;;;;;;;1.81;87.66;100828.50;5062219;28;20226;-52
2021/12/07 10:57:14;;;;;;;25.40;18.60;;;;;;;1.71;87.46;100831.56;5057370;28;20296;-53
2021/12/07 10:59:50;;;;;;;28.53;19.40;;;;;;;1.37;89.73;100830.34;5043922;28;20615;-52
2021/12/07 11:02:18;;;;;;;27.00;18.67;;;;;;;1.60;90.51;100828.59;5049550;28;20730;-52
2021/12/07 11:04:45;;;;;;;28.73;19.20;;;;;;;1.52;88.71;100823.97;5042536;28;20234;-52
2021/12/07 11:07:16;;;;;;;33.60;20.00;;;;;;;1.74;89.51;100820.47;5050468;28;20345;-52
2021/12/07 11:09:48;;;;;;;33.03;23.65;;;;;;;1.63;86.93;100825.25;5041649;28;20456;-52
2021/12/07 11:12:17;;;;;;;31.90;21.40;;;;;;;1.80;87.60;100821.56;5049358;28;20269;-51
2021/12/07 11:14:49;;;;;;;29.90;20.40;;;;;;;2.26;87.32;100820.56;5048261;28;20790;-54
2021/12/07 11:17:18;;;;;;;26.90;19.03;;;;;;;2.13;87.44;100821.84;5039519;28;20238;-51
2021/12/07 11:19:44;;;;;;;31.57;21.43;;;;;;;2.03;88.54;100819.78;5044332;28;20289;-51
2021/12/07 11:22:14;;;;;;;31.00;20.97;;;;;;;1.98;85.39;100823.03;5048120;28;20260;-53
2021/12/07 11:24:43;;;;;;;28.90;20.00;;;;;;;2.18;87.06;100816.84;5046578;28;20231;-51
2021/12/07 11:30:04;;;;;;;30.70;21.00;;;;;;;1.82;86.49;100830.25;5044850;28;20287;-52
2021/12/07 11:32:31;;;;;;;32.67;22.17;;;;;;;1.79;89.97;100835.34;5048098;28;20734;-51
2021/12/07 11:35:08;;;;;;;31.70;20.67;;;;;;;2.03;87.50;100837.00;5040371;28;20751;-52
2021/12/07 11:37:36;;;;;;;35.53;21.77;;;;;;;1.84;89.70;100833.78;5048974;28;20226;-53
2021/12/07 11:40:04;;;;;;;32.40;19.67;;;;;;;1.97;87.00;100829.06;5047894;28;20252;-51
2021/12/07 11:42:34;;;;;;;32.10;20.37;;;;;;;1.91;88.00;100830.59;5043842;28;20621;-52
2021/12/07 11:45:06;;;;;;;31.00;20.50;;;;;;;1.83;87.75;100820.81;5048424;28;20248;-51
2021/12/07 11:47:34;;;;;;;33.63;21.00;;;;;;;1.53;88.75;100820.56;5042360;28;20673;-51
2021/12/07 11:50:04;;;;;;;31.43;19.17;;;;;;;2.30;88.40;100812.06;5046504;28;20238;-52
2021/12/07 11:52:30;;;;;;;34.47;21.07;;;;;;;1.78;88.81;100812.84;5046556;28;20291;-52
2021/12/07 11:54:56;;;;;;;28.13;19.90;;;;;;;2.02;87.21;100818.00;5052007;28;20656;-51
2021/12/07 11:57:23;;;;;;;30.00;21.00;;;;;;;2.18;85.89;100814.25;5045107;28;20595;-52
2021/12/07 11:59:50;;;;;;;26.37;19.30;;;;;;;2.46;86.72;100815.16;5048488;28;20707;-51
2021/12/07 12:02:19;;;;;;;29.80;19.80;;;;;;;2.42;85.70;100810.72;5039748;28;20262;-52
2021/12/07 12:04:46;;;;;;;28.03;20.80;;;;;;;2.39;84.12;100814.97;5049276;28;20258;-50
2021/12/07 12:07:12;;;;;;;30.67;20.97;;;;;;;2.45;85.94;100813.41;5044979;28;20284;-52
2021/12/07 12:09:44;;;;;;;30.00;20.70;;;;;;;2.32;86.32;100797.47;5046806;28;20288;-52
2021/12/07 12:12:25;;;;;;;28.60;20.90;;;;;;;2.45;85.64;100797.84;5044253;28;20739;-51
2021/12/07 12:15:00;;;;;;;29.67;21.27;;;;;;;2.08;85.46;100786.28;5049446;28;20659;-52
2021/12/07 12:17:38;;;;;;;32.30;21.17;;;;;;;2.55;85.01;100789.56;5045348;28;20246;-53
2021/12/07 12:20:19;;;;;;;32.13;21.37;;;;;;;2.30;87.76;100780.97;5050510;28;20304;-54
2021/12/07 12:22:50;;;;;;;33.58;22.25;;;;;;;2.10;88.02;100789.78;5045094;28;20896;-52
2021/12/07 12:25:21;;;;;;;31.40;21.87;;;;;;;1.85;87.17;100794.13;5046069;28;20441;-53
2021/12/07 12:27:50;;;;;;;34.53;23.83;;;;;;;1.69;89.61;100797.00;5058222;28;20419;-51
2021/12/07 12:30:21;;;;;;;32.00;22.53;;;;;;;1.91;87.66;100801.22;5060680;28;20272;-52